sensor_id;sensor_type;location;lat;lon;timestamp;P1;durP1;ratioP1;P2;durP2;ratioP2
71080;SDS011;58740;50.672;18.690;2023-11-21T00:00:23;8.00;;;2.70;;
71080;SDS011;58740;50.672;18.690;2023-11-21T00:03:17;5.80;;;2.20;;
71080;SDS011;58740;50.672;18.690;2023-11-21T00:05:50;6.20;;;2.50;;
71080;SDS011;58740;50.672;18.690;2023-11-21T00:08:24;5.00;;;2.30;;
71080;SDS011;58740;50.672;18.690;2023-11-21T00:10:57;5.30;;;2.50;;
71080;SDS011;58740;50.672;18.690;2023-11-21T00:13:31;6.90;;;2.60;;
71080;SDS011;58740;50.672;18.690;2023-11-21T00:16:06;6.30;;;2.20;;
71080;SDS011;58740;50.672;18.690;2023-11-21T00:18:40;6.20;;;2.40;;
71080;SDS011;58740;50.672;18.690;2023-11-21T00:21:13;5.50;;;2.70;;
71080;SDS011;58740;50.672;18.690;2023-11-21T00:23:47;6.60;;;3.00;;
71080;SDS011;58740;50.672;18.690;2023-11-21T00:26:20;5.70;;;2.50;;
71080;SDS011;58740;50.672;18.690;2023-11-21T00:28:54;7.50;;;2.90;;
71080;SDS011;58740;50.672;18.690;2023-11-21T00:31:27;5.60;;;2.50;;
71080;SDS011;58740;50.672;18.690;2023-11-21T00:34:01;6.60;;;2.80;;
71080;SDS011;58740;50.672;18.690;2023-11-21T00:36:35;6.60;;;3.00;;
71080;SDS011;58740;50.672;18.690;2023-11-21T00:39:09;7.00;;;2.80;;
71080;SDS011;58740;50.672;18.690;2023-11-21T00:41:42;5.90;;;2.00;;
71080;SDS011;58740;50.672;18.690;2023-11-21T00:44:16;7.80;;;3.20;;
71080;SDS011;58740;50.672;18.690;2023-11-21T00:46:49;8.80;;;3.10;;
71080;SDS011;58740;50.672;18.690;2023-11-21T00:49:22;7.20;;;2.70;;
71080;SDS011;58740;50.672;18.690;2023-11-21T00:51:56;7.10;;;3.00;;
71080;SDS011;58740;50.672;18.690;2023-11-21T00:54:29;6.30;;;2.50;;
71080;SDS011;58740;50.672;18.690;2023-11-21T00:57:05;5.50;;;2.60;;
71080;SDS011;58740;50.672;18.690;2023-11-21T00:59:39;7.20;;;2.60;;
71080;SDS011;58740;50.672;18.690;2023-11-21T01:02:12;5.30;;;2.60;;
71080;SDS011;58740;50.672;18.690;2023-11-21T01:04:46;7.60;;;2.90;;
71080;SDS011;58740;50.672;18.690;2023-11-21T01:07:19;7.00;;;2.40;;
71080;SDS011;58740;50.672;18.690;2023-11-21T01:09:53;8.20;;;3.00;;
71080;SDS011;58740;50.672;18.690;2023-11-21T01:12:26;5.60;;;2.20;;
71080;SDS011;58740;50.672;18.690;2023-11-21T01:15:00;6.90;;;2.90;;
71080;SDS011;58740;50.672;18.690;2023-11-21T01:17:33;6.10;;;2.20;;
71080;SDS011;58740;50.672;18.690;2023-11-21T01:20:08;7.30;;;2.40;;
71080;SDS011;58740;50.672;18.690;2023-11-21T01:22:44;6.70;;;2.50;;
71080;SDS011;58740;50.672;18.690;2023-11-21T01:25:19;6.50;;;2.60;;
71080;SDS011;58740;50.672;18.690;2023-11-21T01:27:53;7.80;;;2.90;;
71080;SDS011;58740;50.672;18.690;2023-11-21T01:30:26;6.90;;;2.50;;
71080;SDS011;58740;50.672;18.690;2023-11-21T01:33:00;6.70;;;2.50;;
71080;SDS011;58740;50.672;18.690;2023-11-21T01:35:33;5.80;;;2.60;;
71080;SDS011;58740;50.672;18.690;2023-11-21T01:38:06;5.00;;;2.10;;
71080;SDS011;58740;50.672;18.690;2023-11-21T01:40:40;5.10;;;2.40;;
71080;SDS011;58740;50.672;18.690;2023-11-21T01:43:13;5.50;;;2.50;;
71080;SDS011;58740;50.672;18.690;2023-11-21T01:45:47;8.10;;;4.10;;
71080;SDS011;58740;50.672;18.690;2023-11-21T01:48:21;7.60;;;2.80;;
71080;SDS011;58740;50.672;18.690;2023-11-21T01:50:55;5.50;;;2.40;;
71080;SDS011;58740;50.672;18.690;2023-11-21T01:53:29;8.60;;;3.10;;
71080;SDS011;58740;50.672;18.690;2023-11-21T01:56:02;6.70;;;2.90;;
71080;SDS011;58740;50.672;18.690;2023-11-21T01:58:38;6.90;;;3.30;;
71080;SDS011;58740;50.672;18.690;2023-11-21T02:01:11;7.70;;;4.00;;
71080;SDS011;58740;50.672;18.690;2023-11-21T02:03:45;8.30;;;3.60;;
71080;SDS011;58740;50.672;18.690;2023-11-21T02:06:19;10.30;;;3.90;;
71080;SDS011;58740;50.672;18.690;2023-11-21T02:08:53;9.40;;;3.40;;
71080;SDS011;58740;50.672;18.690;2023-11-21T02:11:26;6.50;;;2.90;;
71080;SDS011;58740;50.672;18.690;2023-11-21T02:14:00;7.40;;;3.50;;
71080;SDS011;58740;50.672;18.690;2023-11-21T02:16:33;7.60;;;3.20;;
71080;SDS011;58740;50.672;18.690;2023-11-21T02:19:08;8.70;;;3.40;;
71080;SDS011;58740;50.672;18.690;2023-11-21T02:21:44;6.90;;;3.20;;
71080;SDS011;58740;50.672;18.690;2023-11-21T02:24:21;6.90;;;3.10;;
71080;SDS011;58740;50.672;18.690;2023-11-21T02:26:55;6.30;;;3.10;;
71080;SDS011;58740;50.672;18.690;2023-11-21T02:29:28;6.40;;;2.70;;
71080;SDS011;58740;50.672;18.690;2023-11-21T02:32:02;7.80;;;2.70;;
71080;SDS011;58740;50.672;18.690;2023-11-21T02:34:36;8.70;;;2.90;;
71080;SDS011;58740;50.672;18.690;2023-11-21T02:37:09;7.80;;;3.70;;
71080;SDS011;58740;50.672;18.690;2023-11-21T02:39:43;8.00;;;2.90;;
71080;SDS011;58740;50.672;18.690;2023-11-21T02:42:16;5.50;;;2.30;;
71080;SDS011;58740;50.672;18.690;2023-11-21T02:44:49;7.90;;;3.50;;
71080;SDS011;58740;50.672;18.690;2023-11-21T02:47:23;12.20;;;3.50;;
71080;SDS011;58740;50.672;18.690;2023-11-21T02:49:56;6.80;;;2.30;;
71080;SDS011;58740;50.672;18.690;2023-11-21T02:52:29;8.20;;;3.20;;
71080;SDS011;58740;50.672;18.690;2023-11-21T02:55:04;6.10;;;2.60;;
71080;SDS011;58740;50.672;18.690;2023-11-21T02:57:38;6.70;;;3.00;;
71080;SDS011;58740;50.672;18.690;2023-11-21T03:00:12;8.70;;;2.60;;
71080;SDS011;58740;50.672;18.690;2023-11-21T03:02:46;8.10;;;3.60;;
71080;SDS011;58740;50.672;18.690;2023-11-21T03:05:20;5.30;;;2.60;;
71080;SDS011;58740;50.672;18.690;2023-11-21T03:07:54;6.80;;;2.60;;
71080;SDS011;58740;50.672;18.690;2023-11-21T03:10:27;7.60;;;3.40;;
71080;SDS011;58740;50.672;18.690;2023-11-21T03:13:00;7.90;;;3.30;;
71080;SDS011;58740;50.672;18.690;2023-11-21T03:15:34;8.40;;;3.70;;
71080;SDS011;58740;50.672;18.690;2023-11-21T03:18:08;10.00;;;4.20;;
71080;SDS011;58740;50.672;18.690;2023-11-21T03:20:43;10.40;;;3.80;;
71080;SDS011;58740;50.672;18.690;2023-11-21T03:23:17;9.50;;;4.30;;
71080;SDS011;58740;50.672;18.690;2023-11-21T03:25:51;7.50;;;3.40;;
71080;SDS011;58740;50.672;18.690;2023-11-21T03:28:24;9.30;;;3.90;;
71080;SDS011;58740;50.672;18.690;2023-11-21T03:30:58;9.50;;;4.50;;
71080;SDS011;58740;50.672;18.690;2023-11-21T03:33:31;10.30;;;4.10;;
71080;SDS011;58740;50.672;18.690;2023-11-21T03:36:06;9.20;;;3.60;;
71080;SDS011;58740;50.672;18.690;2023-11-21T03:38:40;8.30;;;4.40;;
71080;SDS011;58740;50.672;18.690;2023-11-21T03:41:13;8.30;;;3.40;;
71080;SDS011;58740;50.672;18.690;2023-11-21T03:43:47;8.30;;;3.90;;
71080;SDS011;58740;50.672;18.690;2023-11-21T03:46:20;7.50;;;3.00;;
71080;SDS011;58740;50.672;18.690;2023-11-21T03:48:53;5.20;;;2.90;;
71080;SDS011;58740;50.672;18.690;2023-11-21T03:51:27;9.30;;;5.40;;
71080;SDS011;58740;50.672;18.690;2023-11-21T03:54:00;11.70;;;4.90;;
71080;SDS011;58740;50.672;18.690;2023-11-21T03:56:33;7.20;;;4.60;;
71080;SDS011;58740;50.672;18.690;2023-11-21T03:59:07;7.90;;;4.30;;
71080;SDS011;58740;50.672;18.690;2023-11-21T04:01:40;7.30;;;3.30;;
71080;SDS011;58740;50.672;18.690;2023-11-21T04:04:13;6.60;;;2.70;;
71080;SDS011;58740;50.672;18.690;2023-11-21T04:06:47;8.20;;;3.60;;
71080;SDS011;58740;50.672;18.690;2023-11-21T04:09:22;6.90;;;3.20;;
71080;SDS011;58740;50.672;18.690;2023-11-21T04:11:56;9.50;;;4.50;;
71080;SDS011;58740;50.672;18.690;2023-11-21T04:14:29;12.90;;;5.00;;
71080;SDS011;58740;50.672;18.690;2023-11-21T04:17:04;9.70;;;3.80;;
71080;SDS011;58740;50.672;18.690;2023-11-21T04:19:38;8.80;;;2.90;;
71080;SDS011;58740;50.672;18.690;2023-11-21T04:22:11;7.80;;;2.90;;
71080;SDS011;58740;50.672;18.690;2023-11-21T04:24:45;8.40;;;2.60;;
71080;SDS011;58740;50.672;18.690;2023-11-21T04:27:19;7.20;;;2.80;;
71080;SDS011;58740;50.672;18.690;2023-11-21T04:29:52;7.60;;;3.30;;
71080;SDS011;58740;50.672;18.690;2023-11-21T04:32:26;9.30;;;3.80;;
71080;SDS011;58740;50.672;18.690;2023-11-21T04:34:59;10.20;;;3.70;;
71080;SDS011;58740;50.672;18.690;2023-11-21T04:37:34;7.80;;;3.30;;
71080;SDS011;58740;50.672;18.690;2023-11-21T04:40:09;10.50;;;5.00;;
71080;SDS011;58740;50.672;18.690;2023-11-21T04:42:43;16.70;;;7.60;;
71080;SDS011;58740;50.672;18.690;2023-11-21T04:45:17;12.50;;;6.70;;
71080;SDS011;58740;50.672;18.690;2023-11-21T04:47:50;11.60;;;5.40;;
71080;SDS011;58740;50.672;18.690;2023-11-21T04:50:24;11.00;;;6.30;;
71080;SDS011;58740;50.672;18.690;2023-11-21T04:52:57;10.40;;;6.00;;
71080;SDS011;58740;50.672;18.690;2023-11-21T04:55:31;10.30;;;4.80;;
71080;SDS011;58740;50.672;18.690;2023-11-21T04:58:04;9.50;;;4.30;;
71080;SDS011;58740;50.672;18.690;2023-11-21T05:00:38;11.70;;;6.50;;
71080;SDS011;58740;50.672;18.690;2023-11-21T05:03:12;8.70;;;5.30;;
71080;SDS011;58740;50.672;18.690;2023-11-21T05:05:45;7.70;;;4.00;;
71080;SDS011;58740;50.672;18.690;2023-11-21T05:08:19;9.80;;;6.50;;
71080;SDS011;58740;50.672;18.690;2023-11-21T05:10:53;9.90;;;5.90;;
71080;SDS011;58740;50.672;18.690;2023-11-21T05:13:26;9.00;;;5.20;;
71080;SDS011;58740;50.672;18.690;2023-11-21T05:15:59;9.40;;;4.60;;
71080;SDS011;58740;50.672;18.690;2023-11-21T05:18:34;9.20;;;4.60;;
71080;SDS011;58740;50.672;18.690;2023-11-21T05:21:08;8.00;;;4.40;;
71080;SDS011;58740;50.672;18.690;2023-11-21T05:23:41;8.20;;;4.00;;
71080;SDS011;58740;50.672;18.690;2023-11-21T05:26:14;8.30;;;5.10;;
71080;SDS011;58740;50.672;18.690;2023-11-21T05:28:47;8.30;;;4.50;;
71080;SDS011;58740;50.672;18.690;2023-11-21T05:31:21;7.60;;;4.40;;
71080;SDS011;58740;50.672;18.690;2023-11-21T05:33:54;7.70;;;4.80;;
71080;SDS011;58740;50.672;18.690;2023-11-21T05:36:28;8.70;;;4.90;;
71080;SDS011;58740;50.672;18.690;2023-11-21T05:39:02;9.60;;;5.50;;
71080;SDS011;58740;50.672;18.690;2023-11-21T05:41:35;7.80;;;4.70;;
71080;SDS011;58740;50.672;18.690;2023-11-21T05:44:08;7.30;;;3.90;;
71080;SDS011;58740;50.672;18.690;2023-11-21T05:46:42;9.20;;;4.60;;
71080;SDS011;58740;50.672;18.690;2023-11-21T05:49:16;9.80;;;4.30;;
71080;SDS011;58740;50.672;18.690;2023-11-21T05:51:52;8.10;;;4.50;;
71080;SDS011;58740;50.672;18.690;2023-11-21T05:54:25;9.60;;;4.70;;
71080;SDS011;58740;50.672;18.690;2023-11-21T05:56:59;10.20;;;5.50;;
71080;SDS011;58740;50.672;18.690;2023-11-21T05:59:33;11.50;;;5.10;;
71080;SDS011;58740;50.672;18.690;2023-11-21T06:02:06;8.80;;;5.20;;
71080;SDS011;58740;50.672;18.690;2023-11-21T06:04:40;10.10;;;5.40;;
71080;SDS011;58740;50.672;18.690;2023-11-21T06:07:13;12.80;;;6.90;;
71080;SDS011;58740;50.672;18.690;2023-11-21T06:09:46;11.70;;;6.30;;
71080;SDS011;58740;50.672;18.690;2023-11-21T06:12:20;9.40;;;5.80;;
71080;SDS011;58740;50.672;18.690;2023-11-21T06:14:53;12.40;;;6.40;;
71080;SDS011;58740;50.672;18.690;2023-11-21T06:17:27;11.30;;;6.90;;
71080;SDS011;58740;50.672;18.690;2023-11-21T06:20:00;13.40;;;6.80;;
71080;SDS011;58740;50.672;18.690;2023-11-21T06:22:40;12.20;;;7.50;;
71080;SDS011;58740;50.672;18.690;2023-11-21T06:25:15;11.00;;;6.60;;
71080;SDS011;58740;50.672;18.690;2023-11-21T06:27:49;11.80;;;6.70;;
71080;SDS011;58740;50.672;18.690;2023-11-21T06:30:24;11.10;;;6.10;;
71080;SDS011;58740;50.672;18.690;2023-11-21T06:32:59;14.20;;;6.50;;
71080;SDS011;58740;50.672;18.690;2023-11-21T06:35:32;18.40;;;7.60;;
71080;SDS011;58740;50.672;18.690;2023-11-21T06:38:06;14.50;;;7.50;;
71080;SDS011;58740;50.672;18.690;2023-11-21T06:40:39;12.50;;;6.70;;
71080;SDS011;58740;50.672;18.690;2023-11-21T06:43:13;15.70;;;8.40;;
71080;SDS011;58740;50.672;18.690;2023-11-21T06:45:48;14.60;;;9.40;;
71080;SDS011;58740;50.672;18.690;2023-11-21T06:48:21;13.60;;;9.30;;
71080;SDS011;58740;50.672;18.690;2023-11-21T06:50:54;13.70;;;7.90;;
71080;SDS011;58740;50.672;18.690;2023-11-21T06:53:28;14.10;;;7.00;;
71080;SDS011;58740;50.672;18.690;2023-11-21T06:56:01;12.90;;;6.60;;
71080;SDS011;58740;50.672;18.690;2023-11-21T06:58:36;13.60;;;6.50;;
71080;SDS011;58740;50.672;18.690;2023-11-21T07:01:10;9.80;;;6.00;;
71080;SDS011;58740;50.672;18.690;2023-11-21T07:03:45;10.80;;;6.10;;
71080;SDS011;58740;50.672;18.690;2023-11-21T07:06:18;12.30;;;6.30;;
71080;SDS011;58740;50.672;18.690;2023-11-21T07:08:52;11.40;;;6.20;;
71080;SDS011;58740;50.672;18.690;2023-11-21T07:11:25;12.40;;;7.40;;
71080;SDS011;58740;50.672;18.690;2023-11-21T07:13:59;11.90;;;6.90;;
71080;SDS011;58740;50.672;18.690;2023-11-21T07:16:36;13.70;;;7.40;;
71080;SDS011;58740;50.672;18.690;2023-11-21T07:19:10;11.70;;;5.90;;
71080;SDS011;58740;50.672;18.690;2023-11-21T07:21:44;15.60;;;8.50;;
71080;SDS011;58740;50.672;18.690;2023-11-21T07:24:17;18.70;;;9.00;;
71080;SDS011;58740;50.672;18.690;2023-11-21T07:26:53;16.30;;;8.90;;
71080;SDS011;58740;50.672;18.690;2023-11-21T07:29:27;15.50;;;8.10;;
71080;SDS011;58740;50.672;18.690;2023-11-21T07:32:00;18.60;;;9.10;;
71080;SDS011;58740;50.672;18.690;2023-11-21T07:34:34;18.30;;;8.60;;
71080;SDS011;58740;50.672;18.690;2023-11-21T07:37:08;16.60;;;7.30;;
71080;SDS011;58740;50.672;18.690;2023-11-21T07:39:42;12.70;;;6.60;;
71080;SDS011;58740;50.672;18.690;2023-11-21T07:42:15;12.00;;;6.60;;
71080;SDS011;58740;50.672;18.690;2023-11-21T07:44:49;13.80;;;7.30;;
71080;SDS011;58740;50.672;18.690;2023-11-21T07:47:22;12.50;;;5.40;;
71080;SDS011;58740;50.672;18.690;2023-11-21T07:49:58;13.00;;;5.80;;
71080;SDS011;58740;50.672;18.690;2023-11-21T07:52:33;12.70;;;6.50;;
71080;SDS011;58740;50.672;18.690;2023-11-21T07:55:07;11.60;;;6.50;;
71080;SDS011;58740;50.672;18.690;2023-11-21T07:57:42;12.20;;;6.00;;
71080;SDS011;58740;50.672;18.690;2023-11-21T08:00:16;13.10;;;6.50;;
71080;SDS011;58740;50.672;18.690;2023-11-21T08:02:51;13.90;;;6.50;;
71080;SDS011;58740;50.672;18.690;2023-11-21T08:05:25;17.50;;;7.60;;
71080;SDS011;58740;50.672;18.690;2023-11-21T08:08:07;14.40;;;7.20;;
71080;SDS011;58740;50.672;18.690;2023-11-21T08:10:40;15.60;;;7.00;;
71080;SDS011;58740;50.672;18.690;2023-11-21T08:13:16;13.80;;;6.30;;
71080;SDS011;58740;50.672;18.690;2023-11-21T08:15:50;13.90;;;6.20;;
71080;SDS011;58740;50.672;18.690;2023-11-21T08:18:25;13.60;;;5.80;;
71080;SDS011;58740;50.672;18.690;2023-11-21T08:20:58;16.10;;;6.50;;
71080;SDS011;58740;50.672;18.690;2023-11-21T08:23:33;13.50;;;6.40;;
71080;SDS011;58740;50.672;18.690;2023-11-21T08:26:07;15.30;;;6.90;;
71080;SDS011;58740;50.672;18.690;2023-11-21T08:28:41;11.70;;;5.40;;
71080;SDS011;58740;50.672;18.690;2023-11-21T08:31:14;11.40;;;4.50;;
71080;SDS011;58740;50.672;18.690;2023-11-21T08:33:47;12.80;;;5.20;;
71080;SDS011;58740;50.672;18.690;2023-11-21T08:36:21;10.80;;;5.10;;
71080;SDS011;58740;50.672;18.690;2023-11-21T08:38:54;10.60;;;5.00;;
71080;SDS011;58740;50.672;18.690;2023-11-21T08:41:28;11.20;;;4.90;;
71080;SDS011;58740;50.672;18.690;2023-11-21T08:44:01;13.50;;;5.80;;
71080;SDS011;58740;50.672;18.690;2023-11-21T08:46:37;11.00;;;5.80;;
71080;SDS011;58740;50.672;18.690;2023-11-21T08:49:12;10.80;;;4.90;;
71080;SDS011;58740;50.672;18.690;2023-11-21T08:51:46;10.30;;;5.90;;
71080;SDS011;58740;50.672;18.690;2023-11-21T08:54:20;13.70;;;7.20;;
71080;SDS011;58740;50.672;18.690;2023-11-21T08:56:53;13.80;;;8.60;;
71080;SDS011;58740;50.672;18.690;2023-11-21T08:59:28;22.30;;;11.70;;
71080;SDS011;58740;50.672;18.690;2023-11-21T09:02:01;15.10;;;8.30;;
71080;SDS011;58740;50.672;18.690;2023-11-21T09:04:35;13.90;;;7.50;;
71080;SDS011;58740;50.672;18.690;2023-11-21T09:07:11;14.20;;;10.20;;
71080;SDS011;58740;50.672;18.690;2023-11-21T09:09:44;12.90;;;7.90;;
71080;SDS011;58740;50.672;18.690;2023-11-21T09:12:18;19.10;;;10.80;;
71080;SDS011;58740;50.672;18.690;2023-11-21T09:14:51;17.60;;;9.50;;
71080;SDS011;58740;50.672;18.690;2023-11-21T09:17:25;20.80;;;10.60;;
71080;SDS011;58740;50.672;18.690;2023-11-21T09:19:58;22.10;;;10.40;;
71080;SDS011;58740;50.672;18.690;2023-11-21T09:22:34;13.80;;;6.50;;
71080;SDS011;58740;50.672;18.690;2023-11-21T09:25:09;15.00;;;7.60;;
71080;SDS011;58740;50.672;18.690;2023-11-21T09:27:43;21.30;;;11.20;;
71080;SDS011;58740;50.672;18.690;2023-11-21T09:30:17;16.00;;;8.60;;
71080;SDS011;58740;50.672;18.690;2023-11-21T09:32:50;12.40;;;5.20;;
71080;SDS011;58740;50.672;18.690;2023-11-21T09:35:24;14.60;;;5.90;;
71080;SDS011;58740;50.672;18.690;2023-11-21T09:37:58;12.60;;;5.40;;
71080;SDS011;58740;50.672;18.690;2023-11-21T09:40:36;9.40;;;4.80;;
71080;SDS011;58740;50.672;18.690;2023-11-21T09:43:17;11.20;;;4.70;;
71080;SDS011;58740;50.672;18.690;2023-11-21T09:45:54;9.30;;;4.30;;
71080;SDS011;58740;50.672;18.690;2023-11-21T09:48:31;8.40;;;4.50;;
71080;SDS011;58740;50.672;18.690;2023-11-21T09:51:07;11.60;;;5.40;;
71080;SDS011;58740;50.672;18.690;2023-11-21T09:53:44;10.80;;;5.70;;
71080;SDS011;58740;50.672;18.690;2023-11-21T09:56:20;8.90;;;4.90;;
71080;SDS011;58740;50.672;18.690;2023-11-21T09:58:55;11.30;;;5.90;;
71080;SDS011;58740;50.672;18.690;2023-11-21T10:01:35;12.60;;;6.40;;
71080;SDS011;58740;50.672;18.690;2023-11-21T10:04:10;13.40;;;5.80;;
71080;SDS011;58740;50.672;18.690;2023-11-21T10:06:44;13.00;;;6.80;;
71080;SDS011;58740;50.672;18.690;2023-11-21T10:09:20;12.90;;;8.60;;
71080;SDS011;58740;50.672;18.690;2023-11-21T10:11:55;16.30;;;8.50;;
71080;SDS011;58740;50.672;18.690;2023-11-21T10:14:31;16.90;;;10.00;;
71080;SDS011;58740;50.672;18.690;2023-11-21T10:17:06;18.20;;;10.80;;
71080;SDS011;58740;50.672;18.690;2023-11-21T10:19:43;18.10;;;12.30;;
71080;SDS011;58740;50.672;18.690;2023-11-21T10:22:18;16.50;;;9.50;;
71080;SDS011;58740;50.672;18.690;2023-11-21T10:24:54;16.90;;;9.90;;
71080;SDS011;58740;50.672;18.690;2023-11-21T10:27:28;11.20;;;6.50;;
71080;SDS011;58740;50.672;18.690;2023-11-21T10:30:03;14.30;;;8.70;;
71080;SDS011;58740;50.672;18.690;2023-11-21T10:32:38;12.40;;;7.40;;
71080;SDS011;58740;50.672;18.690;2023-11-21T10:35:12;16.40;;;10.30;;
71080;SDS011;58740;50.672;18.690;2023-11-21T10:37:45;12.00;;;7.90;;
71080;SDS011;58740;50.672;18.690;2023-11-21T10:40:33;17.30;;;11.10;;
71080;SDS011;58740;50.672;18.690;2023-11-21T10:43:10;16.90;;;12.00;;
71080;SDS011;58740;50.672;18.690;2023-11-21T10:45:45;16.80;;;11.10;;
71080;SDS011;58740;50.672;18.690;2023-11-21T10:48:19;16.90;;;10.70;;
71080;SDS011;58740;50.672;18.690;2023-11-21T10:50:54;24.00;;;16.10;;
71080;SDS011;58740;50.672;18.690;2023-11-21T10:53:31;21.30;;;13.90;;
71080;SDS011;58740;50.672;18.690;2023-11-21T10:56:08;15.70;;;11.50;;
71080;SDS011;58740;50.672;18.690;2023-11-21T10:58:49;14.90;;;9.70;;
71080;SDS011;58740;50.672;18.690;2023-11-21T11:01:27;37.40;;;21.60;;
71080;SDS011;58740;50.672;18.690;2023-11-21T11:04:03;49.40;;;30.20;;
71080;SDS011;58740;50.672;18.690;2023-11-21T11:06:45;38.30;;;23.90;;
71080;SDS011;58740;50.672;18.690;2023-11-21T11:09:23;30.10;;;18.70;;
71080;SDS011;58740;50.672;18.690;2023-11-21T11:11:57;34.40;;;21.10;;
71080;SDS011;58740;50.672;18.690;2023-11-21T11:14:32;43.50;;;24.00;;
71080;SDS011;58740;50.672;18.690;2023-11-21T11:17:07;37.20;;;22.20;;
71080;SDS011;58740;50.672;18.690;2023-11-21T11:19:42;32.60;;;18.30;;
71080;SDS011;58740;50.672;18.690;2023-11-21T11:22:31;44.90;;;22.20;;
71080;SDS011;58740;50.672;18.690;2023-11-21T11:25:27;31.70;;;17.40;;
71080;SDS011;58740;50.672;18.690;2023-11-21T11:28:14;21.20;;;10.90;;
71080;SDS011;58740;50.672;18.690;2023-11-21T11:31:00;15.30;;;8.00;;
71080;SDS011;58740;50.672;18.690;2023-11-21T11:33:41;26.20;;;14.70;;
71080;SDS011;58740;50.672;18.690;2023-11-21T11:36:24;21.70;;;13.70;;
71080;SDS011;58740;50.672;18.690;2023-11-21T11:39:01;31.00;;;18.80;;
71080;SDS011;58740;50.672;18.690;2023-11-21T11:41:36;42.70;;;23.80;;
71080;SDS011;58740;50.672;18.690;2023-11-21T11:44:48;41.10;;;23.20;;
71080;SDS011;58740;50.672;18.690;2023-11-21T11:47:27;42.20;;;22.60;;
71080;SDS011;58740;50.672;18.690;2023-11-21T11:50:07;24.90;;;14.30;;
71080;SDS011;58740;50.672;18.690;2023-11-21T11:52:45;22.70;;;13.50;;
71080;SDS011;58740;50.672;18.690;2023-11-21T11:55:22;24.90;;;12.60;;
71080;SDS011;58740;50.672;18.690;2023-11-21T11:57:56;30.90;;;16.30;;
71080;SDS011;58740;50.672;18.690;2023-11-21T12:00:36;36.60;;;25.00;;
71080;SDS011;58740;50.672;18.690;2023-11-21T12:03:11;43.00;;;32.20;;
71080;SDS011;58740;50.672;18.690;2023-11-21T12:05:47;31.10;;;21.90;;
71080;SDS011;58740;50.672;18.690;2023-11-21T12:08:29;33.30;;;23.50;;
71080;SDS011;58740;50.672;18.690;2023-11-21T12:11:06;28.30;;;19.40;;
71080;SDS011;58740;50.672;18.690;2023-11-21T12:13:41;26.20;;;16.40;;
71080;SDS011;58740;50.672;18.690;2023-11-21T12:16:15;28.10;;;17.30;;
71080;SDS011;58740;50.672;18.690;2023-11-21T12:18:51;28.40;;;19.30;;
71080;SDS011;58740;50.672;18.690;2023-11-21T12:21:25;20.30;;;13.80;;
71080;SDS011;58740;50.672;18.690;2023-11-21T12:23:59;32.80;;;20.30;;
71080;SDS011;58740;50.672;18.690;2023-11-21T12:26:32;34.90;;;21.60;;
71080;SDS011;58740;50.672;18.690;2023-11-21T12:29:06;37.60;;;25.50;;
71080;SDS011;58740;50.672;18.690;2023-11-21T12:31:41;58.10;;;31.90;;
71080;SDS011;58740;50.672;18.690;2023-11-21T12:34:15;52.00;;;30.10;;
71080;SDS011;58740;50.672;18.690;2023-11-21T12:36:48;48.50;;;32.90;;
71080;SDS011;58740;50.672;18.690;2023-11-21T12:39:25;34.50;;;21.50;;
71080;SDS011;58740;50.672;18.690;2023-11-21T12:41:59;23.80;;;13.90;;
71080;SDS011;58740;50.672;18.690;2023-11-21T12:44:33;25.00;;;13.60;;
71080;SDS011;58740;50.672;18.690;2023-11-21T12:47:06;29.50;;;18.50;;
71080;SDS011;58740;50.672;18.690;2023-11-21T12:54:13;13.90;;;6.90;;
71080;SDS011;58740;50.672;18.690;2023-11-21T12:56:48;13.60;;;7.80;;
71080;SDS011;58740;50.672;18.690;2023-11-21T12:59:23;19.40;;;10.70;;
71080;SDS011;58740;50.672;18.690;2023-11-21T13:01:57;31.60;;;19.00;;
71080;SDS011;58740;50.672;18.690;2023-11-21T13:04:35;51.70;;;28.70;;
71080;SDS011;58740;50.672;18.690;2023-11-21T13:07:09;29.60;;;17.10;;
71080;SDS011;58740;50.672;18.690;2023-11-21T13:09:45;17.30;;;9.70;;
71080;SDS011;58740;50.672;18.690;2023-11-21T13:12:25;17.60;;;9.70;;
71080;SDS011;58740;50.672;18.690;2023-11-21T13:15:05;16.50;;;8.70;;
71080;SDS011;58740;50.672;18.690;2023-11-21T13:17:40;14.50;;;8.20;;
71080;SDS011;58740;50.672;18.690;2023-11-21T13:20:15;11.10;;;6.20;;
71080;SDS011;58740;50.672;18.690;2023-11-21T13:22:52;9.00;;;5.10;;
71080;SDS011;58740;50.672;18.690;2023-11-21T13:25:28;10.00;;;5.10;;
71080;SDS011;58740;50.672;18.690;2023-11-21T13:28:03;20.90;;;9.50;;
71080;SDS011;58740;50.672;18.690;2023-11-21T13:30:39;28.00;;;12.90;;
71080;SDS011;58740;50.672;18.690;2023-11-21T13:33:17;19.10;;;9.80;;
71080;SDS011;58740;50.672;18.690;2023-11-21T13:35:58;31.50;;;14.70;;
71080;SDS011;58740;50.672;18.690;2023-11-21T13:38:33;24.40;;;11.50;;
71080;SDS011;58740;50.672;18.690;2023-11-21T13:41:12;28.20;;;13.10;;
71080;SDS011;58740;50.672;18.690;2023-11-21T13:43:49;30.00;;;14.70;;
71080;SDS011;58740;50.672;18.690;2023-11-21T13:46:33;26.30;;;13.20;;
71080;SDS011;58740;50.672;18.690;2023-11-21T13:49:12;28.80;;;14.50;;
71080;SDS011;58740;50.672;18.690;2023-11-21T13:51:48;28.40;;;14.20;;
71080;SDS011;58740;50.672;18.690;2023-11-21T13:54:25;27.70;;;12.40;;
71080;SDS011;58740;50.672;18.690;2023-11-21T13:57:00;26.80;;;14.20;;
71080;SDS011;58740;50.672;18.690;2023-11-21T13:59:36;27.60;;;13.30;;
71080;SDS011;58740;50.672;18.690;2023-11-21T14:02:10;30.10;;;15.60;;
71080;SDS011;58740;50.672;18.690;2023-11-21T14:04:49;18.80;;;9.90;;
71080;SDS011;58740;50.672;18.690;2023-11-21T14:07:26;21.60;;;11.60;;
71080;SDS011;58740;50.672;18.690;2023-11-21T14:10:07;20.20;;;11.30;;
71080;SDS011;58740;50.672;18.690;2023-11-21T14:12:45;22.60;;;12.50;;
71080;SDS011;58740;50.672;18.690;2023-11-21T14:15:18;19.20;;;10.40;;
71080;SDS011;58740;50.672;18.690;2023-11-21T14:17:53;17.10;;;9.20;;
71080;SDS011;58740;50.672;18.690;2023-11-21T14:20:26;16.80;;;7.80;;
71080;SDS011;58740;50.672;18.690;2023-11-21T14:23:01;16.70;;;9.10;;
71080;SDS011;58740;50.672;18.690;2023-11-21T14:25:35;21.30;;;10.60;;
71080;SDS011;58740;50.672;18.690;2023-11-21T14:28:10;17.20;;;7.60;;
71080;SDS011;58740;50.672;18.690;2023-11-21T14:30:43;16.10;;;8.50;;
71080;SDS011;58740;50.672;18.690;2023-11-21T14:33:17;19.00;;;9.70;;
71080;SDS011;58740;50.672;18.690;2023-11-21T14:35:51;19.30;;;9.20;;
71080;SDS011;58740;50.672;18.690;2023-11-21T14:38:24;15.30;;;8.20;;
71080;SDS011;58740;50.672;18.690;2023-11-21T14:40:58;17.70;;;9.60;;
71080;SDS011;58740;50.672;18.690;2023-11-21T14:43:32;18.90;;;9.60;;
71080;SDS011;58740;50.672;18.690;2023-11-21T14:46:06;18.20;;;8.60;;
71080;SDS011;58740;50.672;18.690;2023-11-21T14:48:40;13.10;;;6.80;;
71080;SDS011;58740;50.672;18.690;2023-11-21T14:51:17;22.90;;;10.80;;
71080;SDS011;58740;50.672;18.690;2023-11-21T14:53:58;20.50;;;10.10;;
71080;SDS011;58740;50.672;18.690;2023-11-21T14:56:37;21.20;;;9.40;;
71080;SDS011;58740;50.672;18.690;2023-11-21T14:59:14;19.40;;;8.30;;
71080;SDS011;58740;50.672;18.690;2023-11-21T15:01:48;12.70;;;5.10;;
71080;SDS011;58740;50.672;18.690;2023-11-21T15:04:26;16.40;;;7.70;;
71080;SDS011;58740;50.672;18.690;2023-11-21T15:07:07;17.10;;;8.00;;
71080;SDS011;58740;50.672;18.690;2023-11-21T15:09:42;19.20;;;9.40;;
71080;SDS011;58740;50.672;18.690;2023-11-21T15:12:16;17.80;;;8.50;;